Time;durP1;ratioP1;P1;durP2;ratioP2;P2;SDS_P1;SDS_P2;PMS_P1;PMS_P2;Temp;Humidity;BMP_temperature;BMP_pressure;BME280_temperature;BME280_humidity;BME280_pressure;Samples;Min_cycle;Max_cycle;Signal;HPM_P1;HPM_P2
2021/11/07 00:00:39;;;;;;;;;;;;;;;;;;;;;
2021/11/07 00:08:46;;;;;;;32.50;7.05;;;;;;;;;;4419985;32;20075;-74
2021/11/07 00:11:41;;;;;;;29.25;4.82;;;;;;;;;;4420411;32;20035;-74
2021/11/07 00:14:08;;;;;;;28.73;7.53;;;;;;;;;;4420536;32;20046;-73
2021/11/07 00:16:53;;;;;;;34.63;6.95;;;;;;;;;;4420609;32;20029;-73
2021/11/07 00:25:16;;;;;;;25.05;6.95;;;;;;;;;;4403271;32;20337;-73
2021/11/07 00:27:55;;;;;;;24.40;6.93;;;;;;;;;;4405566;32;20034;-72
2021/11/07 00:34:06;;;;;;;30.33;7.00;;;;;;;;;;4405346;32;20397;-72
2021/11/07 00:36:49;;;;;;;21.95;5.32;;;;;;;;;;4403666;32;20083;-72
2021/11/07 00:48:55;;;;;;;34.10;8.00;;;;;;;;;;4408200;32;20038;-72
2021/11/07 01:03:14;;;;;;;34.25;7.75;;;;;;;;;;4391470;32;20068;-73
2021/11/07 01:05:59;;;;;;;28.80;7.93;;;;;;;;;;4398723;32;20026;-73
2021/11/07 01:08:27;;;;;;;31.00;7.37;;;;;;;;;;4407210;32;20038;-73
2021/11/07 01:11:05;;;;;;;27.50;6.93;;;;;;;;;;4413288;32;20050;-73
2021/11/07 01:13:49;;;;;;;32.67;7.22;;;;;;;;;;4422773;32;20057;-73
2021/11/07 01:17:19;;;;;;;38.25;7.60;;;;;;;;;;4408913;32;20026;-73
2021/11/07 01:26:29;;;;;;;29.87;7.03;;;;;;;;;;4335952;33;20130;-75
2021/11/07 01:32:01;;;;;;;38.53;8.73;;;;;;;;;;4345328;33;20074;-74
2021/11/07 01:41:04;;;;;;;23.62;7.25;;;;;;;;;;4300904;33;20062;-74
2021/11/07 01:43:35;;;;;;;24.70;7.55;;;;;;;;;;4300893;33;20435;-74
2021/11/07 01:46:35;;;;;;;24.87;8.02;;;;;;;;;;4385659;32;20099;-74
2021/11/07 01:58:53;;;;;;;28.90;8.95;;;;;;;;;;4389595;32;20081;-74
2021/11/07 02:01:36;;;;;;;27.55;8.32;;;;;;;;;;4392301;32;20122;-74
2021/11/07 02:04:17;;;;;;;22.87;8.05;;;;;;;;;;4392693;32;20026;-74
2021/11/07 02:07:08;;;;;;;;;;;;;;;;;;;;;
2021/11/07 02:12:47;;;;;;;41.15;10.20;;;;;;;;;;4330244;33;20111;-73
2021/11/07 02:24:34;;;;;;;29.83;11.57;;;;;;;;;;4304011;33;20128;-74
2021/11/07 02:30:33;;;;;;;24.58;8.07;;;;;;;;;;4229216;33;20443;-74
2021/11/07 02:45:50;;;;;;;28.40;9.40;;;;;;;;;;4314763;33;20032;-74
2021/11/07 02:55:26;;;;;;;28.00;9.18;;;;;;;;;;4249130;33;20045;-73
2021/11/07 02:58:17;;;;;;;21.73;8.38;;;;;;;;;;4229364;33;20042;-73
2021/11/07 03:00:43;;;;;;;26.60;8.65;;;;;;;;;;4229165;33;20331;-74
2021/11/07 03:06:02;;;;;;;;;;;;;;;;;;;;;
2021/11/07 03:30:48;;;;;;;19.37;6.40;;;;;;;;;;4150422;34;20542;-73
2021/11/07 03:39:04;;;;;;;18.83;4.50;;;;;;;;;;4214443;34;20055;-73
2021/11/07 03:41:29;;;;;;;17.65;4.65;;;;;;;;;;4261836;32;20028;-73
2021/11/07 03:47:08;;;;;;;22.90;4.53;;;;;;;;;;4359069;32;19930;-73
2021/11/07 03:49:46;;;;;;;22.90;4.65;;;;;;;;;;4358915;32;20065;-73
2021/11/07 03:52:50;;;;;;;;;;;;;;;;;;;;;
2021/11/07 03:55:16;;;;;;;18.12;4.43;;;;;;;;;;4391176;32;20019;-73
2021/11/07 03:57:50;;;;;;;;;;;;;;;;;;4383153;32;20049;-73
2021/11/07 04:00:18;;;;;;;16.15;4.15;;;;;;;;;;4390793;32;19937;-73
2021/11/07 04:03:34;;;;;;;15.38;3.92;;;;;;;;;;4390000;32;20022;-73
2021/11/07 04:06:18;;;;;;;18.23;3.67;;;;;;;;;;4314203;33;20418;-73
2021/11/07 04:08:43;;;;;;;19.30;4.45;;;;;;;;;;4307162;33;20033;-73
2021/11/07 04:13:54;;;;;;;20.35;4.30;;;;;;;;;;4299684;33;19931;-73
2021/11/07 04:16:29;;;;;;;17.75;4.03;;;;;;;;;;4299845;33;20574;-74
2021/11/07 04:18:54;;;;;;;21.00;4.43;;;;;;;;;;4301824;33;20054;-73
2021/11/07 04:21:20;;;;;;;;;;;;;;;;;;4303420;33;20060;-73
2021/11/07 04:24:14;;;;;;;;;;;;;;;;;;;;;
2021/11/07 04:29:56;;;;;;;24.92;4.15;;;;;;;;;;4288110;33;20126;-74
2021/11/07 04:35:47;;;;;;;23.40;3.85;;;;;;;;;;4307043;33;20029;-73
2021/11/07 04:38:28;;;;;;;20.48;4.72;;;;;;;;;;4305333;33;20029;-73
2021/11/07 04:41:16;;;;;;;21.12;3.87;;;;;;;;;;4354087;33;20024;-73
2021/11/07 04:44:09;;;;;;;23.55;3.85;;;;;;;;;;4352487;33;20058;-73
2021/11/07 04:46:51;;;;;;;24.92;4.10;;;;;;;;;;4360743;32;20042;-73
2021/11/07 04:49:16;;;;;;;22.50;5.03;;;;;;;;;;4361080;32;20024;-73
2021/11/07 04:52:10;;;;;;;;;;;;;;;;;;;;;
2021/11/07 04:55:00;;;;;;;25.73;6.07;;;;;;;;;;4351517;33;19957;-75
2021/11/07 05:07:02;;;;;;;16.55;3.85;;;;;;;;;;4340080;33;20067;-73
2021/11/07 05:12:48;;;;;;;25.05;4.15;;;;;;;;;;4361646;32;20481;-73
2021/11/07 05:15:41;;;;;;;22.13;5.65;;;;;;;;;;4390515;32;20360;-73
2021/11/07 05:18:28;;;;;;;17.52;4.78;;;;;;;;;;4405964;32;20056;-73
2021/11/07 05:20:56;;;;;;;;;;;;;;;;;;4407301;32;20084;-73
2021/11/07 05:23:27;;;;;;;22.83;4.68;;;;;;;;;;4401622;32;19973;-73
2021/11/07 05:33:20;;;;;;;;;;;;;;;;;;;;;
2021/11/07 05:36:18;;;;;;;26.67;5.15;;;;;;;;;;4301186;33;20029;-73
2021/11/07 05:42:11;;;;;;;21.87;5.10;;;;;;;;;;4202183;34;20027;-73
2021/11/07 05:44:46;;;;;;;20.70;4.45;;;;;;;;;;4237715;33;20101;-73
2021/11/07 05:47:21;;;;;;;19.98;4.40;;;;;;;;;;4298370;33;20094;-72
2021/11/07 05:52:36;;;;;;;20.25;4.35;;;;;;;;;;4392092;32;20053;-72
2021/11/07 05:55:06;;;;;;;20.67;4.47;;;;;;;;;;4378297;32;20085;-72
2021/11/07 05:57:57;;;;;;;;;;;;;;;;;;;;;
2021/11/07 06:00:23;;;;;;;29.48;5.15;;;;;;;;;;4403638;32;20026;-72
2021/11/07 06:06:05;;;;;;;22.00;4.95;;;;;;;;;;4407562;32;19952;-73
2021/11/07 06:08:50;;;;;;;20.37;3.92;;;;;;;;;;4406323;32;20034;-73
2021/11/07 06:11:47;;;;;;;27.90;5.45;;;;;;;;;;4407481;32;20027;-72
2021/11/07 06:17:09;;;;;;;27.15;5.82;;;;;;;;;;4407287;32;20470;-73
2021/11/07 06:19:39;;;;;;;24.80;3.65;;;;;;;;;;4407430;32;20045;-72
2021/11/07 06:24:52;;;;;;;26.85;4.72;;;;;;;;;;4391814;32;20073;-72
2021/11/07 06:34:21;;;;;;;18.62;4.47;;;;;;;;;;4328448;33;20051;-72
2021/11/07 06:36:50;;;;;;;;;;;;;;;;;;;;;
2021/11/07 06:47:59;;;;;;;27.33;4.85;;;;;;;;;;4344706;33;20049;-72
2021/11/07 06:53:27;;;;;;;22.92;5.03;;;;;;;;;;4344147;33;20103;-73
2021/11/07 06:56:08;;;;;;;29.83;5.50;;;;;;;;;;4343990;33;20047;-72
2021/11/07 06:59:13;;;;;;;24.67;5.00;;;;;;;;;;4344033;33;20094;-72
2021/11/07 07:01:57;;;;;;;22.10;5.37;;;;;;;;;;4383852;32;20108;-72
2021/11/07 07:04:53;;;;;;;;;;;;;;;;;;;;;
2021/11/07 07:08:06;;;;;;;16.77;4.03;;;;;;;;;;4314360;33;20066;-73
2021/11/07 07:16:28;;;;;;;29.58;5.65;;;;;;;;;;4390806;32;20455;-73
2021/11/07 07:34:41;;;;;;;29.00;4.87;;;;;;;;;;4343848;32;20046;-72
2021/11/07 07:37:07;;;;;;;29.52;4.95;;;;;;;;;;4328903;33;20086;-72
2021/11/07 07:42:38;;;;;;;24.00;4.45;;;;;;;;;;4368414;32;20001;-72
2021/11/07 07:45:05;;;;;;;24.55;4.93;;;;;;;;;;4380529;32;20039;-73
2021/11/07 07:47:51;;;;;;;20.55;4.75;;;;;;;;;;4390071;32;20078;-73
2021/11/07 07:50:27;;;;;;;;;;;;;;;;;;;;;
2021/11/07 07:52:53;;;;;;;18.00;5.07;;;;;;;;;;4385036;32;20035;-73
2021/11/07 07:55:19;;;;;;;18.45;4.37;;;;;;;;;;4390408;32;20027;-73
2021/11/07 08:00:32;;;;;;;25.60;5.32;;;;;;;;;;4390770;32;20327;-73
2021/11/07 08:03:28;;;;;;;24.65;4.47;;;;;;;;;;4385674;32;20031;-72
2021/11/07 08:09:08;;;;;;;25.48;5.75;;;;;;;;;;4328926;33;20024;-72
2021/11/07 08:11:48;;;;;;;21.02;4.78;;;;;;;;;;4317167;33;20062;-72
2021/11/07 08:17:28;;;;;;;25.35;6.37;;;;;;;;;;4294445;33;20041;-73
2021/11/07 08:19:53;;;;;;;;;;;;;;;;;;4361723;32;20452;-72
2021/11/07 08:22:19;;;;;;;22.52;4.50;;;;;;;;;;4375219;32;19938;-72
2021/11/07 08:27:40;;;;;;;;;;;;;;;;;;;;;
2021/11/07 08:30:11;;;;;;;19.20;5.18;;;;;;;;;;4387722;32;20073;-72
2021/11/07 08:33:07;;;;;;;17.73;4.30;;;;;;;;;;4389500;32;20369;-73
2021/11/07 08:35:49;;;;;;;25.92;5.40;;;;;;;;;;4395615;32;20112;-73
2021/11/07 09:05:27;;;;;;;21.00;4.53;;;;;;;;;;4277045;33;20025;-73
2021/11/07 09:11:16;;;;;;;27.87;5.15;;;;;;;;;;4287862;33;20104;-74
2021/11/07 09:14:13;;;;;;;17.35;4.05;;;;;;;;;;4287833;33;20083;-73
2021/11/07 09:16:39;;;;;;;18.62;4.37;;;;;;;;;;4260630;33;20042;-73
2021/11/07 09:25:20;;;;;;;22.35;4.70;;;;;;;;;;4287867;33;20069;-72
2021/11/07 09:36:51;;;;;;;25.88;4.50;;;;;;;;;;4411620;32;20065;-72
2021/11/07 09:39:35;;;;;;;27.05;6.65;;;;;;;;;;4422790;32;20026;-71
2021/11/07 09:42:50;;;;;;;;;;;;;;;;;;;;;
2021/11/07 09:54:06;;;;;;;24.00;5.53;;;;;;;;;;4407448;32;20447;-72
2021/11/07 09:56:38;;;;;;;;;;;;;;;;;;4407322;32;20069;-72
2021/11/07 09:59:03;;;;;;;19.27;4.05;;;;;;;;;;4407176;32;19937;-72
2021/11/07 10:01:31;;;;;;;;;;;;;;;;;;4407364;32;20077;-74
2021/11/07 10:07:12;;;;;;;23.23;5.37;;;;;;;;;;4413467;32;20045;-73
2021/11/07 10:13:21;;;;;;;19.75;5.15;;;;;;;;;;4351701;33;20424;-73
2021/11/07 10:18:12;;;;;;;;;;;;;;;;;;4388248;32;20021;-71
2021/11/07 10:21:08;;;;;;;15.65;4.87;;;;;;;;;;4419021;32;19960;-72
2021/11/07 10:23:55;;;;;;;22.27;4.90;;;;;;;;;;4420149;32;20033;-72
2021/11/07 10:29:16;;;;;;;;;;;;;;;;;;;;;
2021/11/07 10:34:49;;;;;;;20.02;4.18;;;;;;;;;;4413200;32;20476;-73
2021/11/07 10:54:27;;;;;;;19.08;4.47;;;;;;;;;;4421470;32;20075;-73
2021/11/07 11:00:16;;;;;;;16.80;4.70;;;;;;;;;;4406023;32;20072;-75
2021/11/07 11:03:18;;;;;;;25.70;5.62;;;;;;;;;;4406198;32;20061;-73
2021/11/07 11:06:13;;;;;;;23.02;4.53;;;;;;;;;;4410031;32;20091;-73
2021/11/07 11:11:55;;;;;;;24.17;5.12;;;;;;;;;;4409420;32;20360;-72
2021/11/07 11:14:42;;;;;;;30.50;5.50;;;;;;;;;;4399167;32;20030;-72
2021/11/07 11:17:26;;;;;;;18.65;4.87;;;;;;;;;;4405458;32;20083;-72
2021/11/07 11:20:40;;;;;;;26.65;4.70;;;;;;;;;;4418396;32;20069;-73
2021/11/07 11:23:21;;;;;;;31.25;5.28;;;;;;;;;;4419937;32;20084;-73
2021/11/07 11:25:54;;;;;;;33.25;5.75;;;;;;;;;;4392032;32;20091;-73
2021/11/07 11:28:40;;;;;;;26.85;4.50;;;;;;;;;;4405828;32;20439;-72
2021/11/07 11:32:13;;;;;;;20.75;4.75;;;;;;;;;;4408558;32;20091;-73
2021/11/07 11:34:01;;;;;;;23.08;4.93;;;;;;;;;;4406686;32;20439;-74
2021/11/07 11:39:35;;;;;;;20.88;4.43;;;;;;;;;;4371197;32;20092;-72
2021/11/07 11:42:38;;;;;;;23.83;6.40;;;;;;;;;;4403643;32;20057;-74
2021/11/07 11:45:22;;;;;;;;;;;;;;;;;;;;;
2021/11/07 11:54:04;;;;;;;25.05;5.37;;;;;;;;;;4328547;33;20044;-73
2021/11/07 11:56:36;;;;;;;26.73;5.07;;;;;;;;;;4344677;33;20092;-72
2021/11/07 11:59:22;;;;;;;26.80;5.05;;;;;;;;;;4337219;33;20113;-72
2021/11/07 12:02:06;;;;;;;21.35;4.70;;;;;;;;;;4362966;32;20091;-72
2021/11/07 12:08:01;;;;;;;28.45;5.45;;;;;;;;;;4384295;32;20038;-72
2021/11/07 12:11:10;;;;;;;36.65;7.68;;;;;;;;;;4344133;33;20113;-72
2021/11/07 12:16:59;;;;;;;25.98;5.07;;;;;;;;;;4341339;33;20542;-72
2021/11/07 12:19:44;;;;;;;28.00;6.80;;;;;;;;;;4342683;33;20036;-72
2021/11/07 12:25:15;;;;;;;27.25;5.53;;;;;;;;;;4374146;32;20334;-73
2021/11/07 12:28:28;;;;;;;;;;;;;;;;;;;;;
2021/11/07 12:31:31;;;;;;;;;;;;;;;;;;;;;
2021/11/07 12:34:31;;;;;;;25.98;6.28;;;;;;;;;;4358066;32;20058;-73
2021/11/07 12:42:35;;;;;;;26.65;5.80;;;;;;;;;;4423743;32;20090;-72
2021/11/07 12:45:37;;;;;;;22.70;5.22;;;;;;;;;;4424018;32;20061;-72
2021/11/07 12:48:07;;;;;;;27.73;5.28;;;;;;;;;;4383384;32;20038;-72
2021/11/07 12:50:53;;;;;;;32.38;6.07;;;;;;;;;;4420931;32;20038;-72
2021/11/07 12:53:29;;;;;;;30.27;8.13;;;;;;;;;;4419340;32;21026;-72
2021/11/07 12:55:58;;;;;;;32.22;7.12;;;;;;;;;;4420612;32;20071;-72
2021/11/07 12:58:28;;;;;;;27.98;6.68;;;;;;;;;;4422978;32;20119;-72
2021/11/07 13:00:54;;;;;;;24.80;5.40;;;;;;;;;;4410911;32;20092;-72
2021/11/07 13:03:34;;;;;;;;;;;;;;;;;;4408357;32;20356;-72
2021/11/07 13:06:00;;;;;;;25.65;5.07;;;;;;;;;;4407544;32;19952;-72
2021/11/07 13:08:44;;;;;;;;;;;;;;;;;;4408223;32;20034;-72
2021/11/07 13:11:17;;;;;;;39.08;6.03;;;;;;;;;;4407704;32;19938;-71
2021/11/07 13:13:58;;;;;;;37.22;5.72;;;;;;;;;;4394872;32;20034;-72
2021/11/07 13:16:54;;;;;;;26.70;6.55;;;;;;;;;;4422451;32;20029;-71
2021/11/07 13:19:43;;;;;;;33.05;5.80;;;;;;;;;;4423153;32;20033;-72
2021/11/07 13:29:16;;;;;;;;;;;;;;;;;;;;;
2021/11/07 13:35:20;;;;;;;33.53;6.35;;;;;;;;;;4342740;33;20062;-72
2021/11/07 13:38:06;;;;;;;33.33;6.45;;;;;;;;;;4395287;32;20042;-72
2021/11/07 13:40:35;;;;;;;32.53;5.55;;;;;;;;;;4406729;32;20057;-72
2021/11/07 13:43:13;;;;;;;35.08;7.22;;;;;;;;;;4421296;32;20072;-72
2021/11/07 13:48:30;;;;;;;28.25;5.53;;;;;;;;;;4422002;32;20060;-72
2021/11/07 13:51:03;;;;;;;26.33;5.70;;;;;;;;;;4420689;32;20340;-71
2021/11/07 13:53:45;;;;;;;27.73;6.47;;;;;;;;;;4419613;32;20102;-71
2021/11/07 13:56:25;;;;;;;;;;;;;;;;;;;;;
2021/11/07 13:58:50;;;;;;;35.03;6.03;;;;;;;;;;4418176;32;20068;-73
2021/11/07 14:01:16;;;;;;;;;;;;;;;;;;4421543;32;20427;-71
2021/11/07 14:03:42;;;;;;;30.05;7.53;;;;;;;;;;4406191;32;20408;-72
2021/11/07 14:09:10;;;;;;;27.65;6.25;;;;;;;;;;4417929;32;19961;-72
2021/11/07 14:11:39;;;;;;;26.55;6.57;;;;;;;;;;4393632;32;20056;-71
2021/11/07 14:14:13;;;;;;;27.77;6.87;;;;;;;;;;4406916;32;20084;-71
2021/11/07 14:16:58;;;;;;;34.00;6.32;;;;;;;;;;4406946;32;20034;-74
2021/11/07 14:19:23;;;;;;;21.73;4.95;;;;;;;;;;4418372;32;20085;-72
2021/11/07 14:21:51;;;;;;;;;;;;;;;;;;4422556;32;20431;-74
2021/11/07 14:24:40;;;;;;;27.92;5.47;;;;;;;;;;4422119;32;19934;-73
2021/11/07 14:27:16;;;;;;;39.10;7.00;;;;;;;;;;4421601;32;20415;-72
2021/11/07 14:29:54;;;;;;;29.80;6.37;;;;;;;;;;4407559;32;20052;-73
2021/11/07 14:32:41;;;;;;;27.75;6.07;;;;;;;;;;4417316;32;20091;-72
2021/11/07 14:35:14;;;;;;;27.65;5.87;;;;;;;;;;4416820;32;20034;-72
2021/11/07 14:40:09;;;;;;;;;;;;;;;;;;4420983;32;20054;-72
2021/11/07 14:42:52;;;;;;;29.55;6.22;;;;;;;;;;4421504;32;19941;-72
2021/11/07 14:45:45;;;;;;;31.25;5.65;;;;;;;;;;4408269;32;20014;-72
2021/11/07 14:53:40;;;;;;;34.80;7.93;;;;;;;;;;4411539;32;20022;-71
2021/11/07 15:01:01;;;;;;;;;;;;;;;;;;4420913;32;20075;-72
2021/11/07 15:03:35;;;;;;;29.67;6.15;;;;;;;;;;4412812;32;19941;-73
2021/11/07 15:09:12;;;;;;;40.08;6.87;;;;;;;;;;4405180;32;20072;-72
2021/11/07 15:14:12;;;;;;;;;;;;;;;;;;4406525;32;20374;-71
2021/11/07 15:16:42;;;;;;;26.65;5.95;;;;;;;;;;4392601;32;19941;-71
2021/11/07 15:19:24;;;;;;;26.77;5.65;;;;;;;;;;4392444;32;20026;-71
2021/11/07 15:22:19;;;;;;;26.50;5.37;;;;;;;;;;4405577;32;20041;-71
2021/11/07 15:27:29;;;;;;;29.30;5.72;;;;;;;;;;4405955;32;20053;-71
2021/11/07 15:30:27;;;;;;;25.75;5.95;;;;;;;;;;4405455;32;20064;-71
2021/11/07 15:32:58;;;;;;;;;;;;;;;;;;4401639;32;20062;-72
2021/11/07 15:35:33;;;;;;;26.27;5.72;;;;;;;;;;4420432;32;19953;-72
2021/11/07 15:38:17;;;;;;;26.40;5.80;;;;;;;;;;4421077;32;20030;-71
2021/11/07 15:40:50;;;;;;;24.67;5.53;;;;;;;;;;4420770;32;20056;-71
2021/11/07 15:43:34;;;;;;;28.05;6.28;;;;;;;;;;4421228;32;20025;-71
2021/11/07 15:46:14;;;;;;;31.12;5.82;;;;;;;;;;4420889;32;20516;-71
2021/11/07 15:48:45;;;;;;;34.80;6.00;;;;;;;;;;4420610;32;20052;-71
2021/11/07 15:51:17;;;;;;;25.08;6.93;;;;;;;;;;4420928;32;20094;-71
2021/11/07 15:56:27;;;;;;;30.95;6.00;;;;;;;;;;4421089;32;20021;-72
2021/11/07 16:01:43;;;;;;;36.30;6.78;;;;;;;;;;4414656;32;20095;-72
2021/11/07 16:04:36;;;;;;;32.00;5.68;;;;;;;;;;4419883;32;20030;-72
2021/11/07 16:07:07;;;;;;;28.27;6.68;;;;;;;;;;4419959;32;20449;-72
2021/11/07 16:12:28;;;;;;;22.15;5.93;;;;;;;;;;4409764;32;20375;-74
2021/11/07 16:17:58;;;;;;;22.37;5.37;;;;;;;;;;4410888;32;20059;-74
2021/11/07 16:20:27;;;;;;;27.15;5.35;;;;;;;;;;4410344;32;20052;-75
2021/11/07 16:22:58;;;;;;;26.98;6.07;;;;;;;;;;4410599;32;20064;-74
2021/11/07 16:25:26;;;;;;;24.65;5.25;;;;;;;;;;4396889;32;20023;-73
2021/11/07 16:27:58;;;;;;;26.23;5.03;;;;;;;;;;4426072;32;20056;-74
2021/11/07 16:30:24;;;;;;;27.62;4.95;;;;;;;;;;4425415;32;20458;-73
2021/11/07 16:33:01;;;;;;;;;;;;;;;;;;4425081;32;20050;-73
2021/11/07 16:35:36;;;;;;;22.23;4.73;;;;;;;;;;4410501;32;20271;-72
2021/11/07 16:38:09;;;;;;;20.65;4.78;;;;;;;;;;4410720;32;20079;-73
2021/11/07 16:40:56;;;;;;;16.92;3.92;;;;;;;;;;4399110;32;20388;-73
2021/11/07 16:43:46;;;;;;;24.02;4.10;;;;;;;;;;4410409;32;20073;-73
2021/11/07 16:46:14;;;;;;;23.30;4.20;;;;;;;;;;4414031;32;20058;-73
2021/11/07 16:48:50;;;;;;;10.82;3.62;;;;;;;;;;4425499;32;20321;-73
2021/11/07 17:00:55;;;;;;;19.27;4.50;;;;;;;;;;4340439;33;20374;-74
2021/11/07 17:09:48;;;;;;;16.60;3.62;;;;;;;;;;4425612;32;20036;-73
2021/11/07 17:12:17;;;;;;;23.75;4.90;;;;;;;;;;4411822;32;20014;-73
2021/11/07 17:14:45;;;;;;;27.08;5.78;;;;;;;;;;4424557;32;20084;-73
2021/11/07 17:17:14;;;;;;;21.12;4.82;;;;;;;;;;4404358;32;20011;-73
2021/11/07 17:25:30;;;;;;;23.42;5.03;;;;;;;;;;4423173;32;20086;-73
2021/11/07 17:30:49;;;;;;;29.23;5.37;;;;;;;;;;4413112;32;20022;-74
2021/11/07 17:33:35;;;;;;;20.05;5.30;;;;;;;;;;4414813;32;20100;-74
2021/11/07 17:55:26;;;;;;;26.50;5.62;;;;;;;;;;4408175;32;20048;-74
2021/11/07 17:57:55;;;;;;;27.17;8.27;;;;;;;;;;4407758;32;20136;-73
2021/11/07 18:00:52;;;;;;;38.10;9.05;;;;;;;;;;4407035;32;20035;-73
2021/11/07 18:03:35;;;;;;;49.58;8.73;;;;;;;;;;4406713;32;20084;-73
2021/11/07 18:06:01;;;;;;;37.22;8.07;;;;;;;;;;4407200;32;20052;-73
2021/11/07 18:08:30;;;;;;;;;;;;;;;;;;4407248;32;20026;-73
2021/11/07 18:10:55;;;;;;;32.75;7.18;;;;;;;;;;4406856;32;19937;-73
2021/11/07 18:13:24;;;;;;;;;;;;;;;;;;4407583;32;20022;-72
2021/11/07 18:15:49;;;;;;;30.60;7.97;;;;;;;;;;4393020;32;19993;-73
2021/11/07 18:18:15;;;;;;;;;;;;;;;;;;4407829;32;20045;-72
2021/11/07 18:20:40;;;;;;;30.25;6.37;;;;;;;;;;4392821;32;19976;-73
2021/11/07 18:23:08;;;;;;;;;;;;;;;;;;4407055;32;20427;-72
2021/11/07 18:25:57;;;;;;;23.20;5.32;;;;;;;;;;4406990;32;19937;-73
2021/11/07 18:28:42;;;;;;;25.30;6.10;;;;;;;;;;4406915;32;20125;-73
2021/11/07 18:31:08;;;;;;;24.37;4.25;;;;;;;;;;4405797;32;20035;-73
2021/11/07 18:33:42;;;;;;;;;;;;;;;;;;4406581;32;20052;-72
2021/11/07 18:36:17;;;;;;;;;;;;;;;;;;;;;
2021/11/07 18:38:44;;;;;;;15.82;4.15;;;;;;;;;;4421717;32;20408;-72
2021/11/07 18:41:30;;;;;;;22.05;5.10;;;;;;;;;;4421763;32;20041;-71
2021/11/07 18:43:55;;;;;;;19.83;5.12;;;;;;;;;;4421049;32;20033;-73
2021/11/07 18:46:21;;;;;;;;;;;;;;;;;;4406795;32;20129;-72
2021/11/07 18:48:47;;;;;;;21.83;4.78;;;;;;;;;;4392802;32;20398;-71
2021/11/07 18:51:14;;;;;;;26.02;6.65;;;;;;;;;;4406387;32;20019;-72
2021/11/07 18:53:40;;;;;;;19.17;6.43;;;;;;;;;;4406265;32;20098;-72
2021/11/07 18:56:05;;;;;;;16.00;5.55;;;;;;;;;;4405974;32;20022;-71
2021/11/07 18:58:31;;;;;;;;;;;;;;;;;;4406503;32;20077;-71
2021/11/07 19:00:58;;;;;;;22.95;6.78;;;;;;;;;;4416853;32;19937;-72
2021/11/07 19:03:24;;;;;;;29.60;6.15;;;;;;;;;;4421330;32;20078;-71
2021/11/07 19:05:56;;;;;;;;;;;;;;;;;;4421712;32;20026;-71
2021/11/07 19:08:29;;;;;;;19.12;4.57;;;;;;;;;;4421400;32;19991;-71
2021/11/07 19:10:55;;;;;;;25.48;6.78;;;;;;;;;;4421034;32;20018;-71
2021/11/07 19:13:20;;;;;;;;;;;;;;;;;;4421275;32;20018;-70
2021/11/07 19:15:46;;;;;;;31.00;5.05;;;;;;;;;;4415780;32;19941;-71
2021/11/07 19:18:12;;;;;;;21.37;4.18;;;;;;;;;;4420526;32;20419;-71
2021/11/07 19:20:38;;;;;;;;;;;;;;;;;;4421417;32;20041;-73
2021/11/07 19:23:05;;;;;;;20.90;4.28;;;;;;;;;;4421072;32;19933;-71
2021/11/07 19:25:30;;;;;;;23.62;4.90;;;;;;;;;;4420924;32;20439;-70
2021/11/07 19:27:56;;;;;;;;;;;;;;;;;;4418473;32;20019;-71
2021/11/07 19:30:22;;;;;;;28.00;5.87;;;;;;;;;;4406006;32;20003;-71
2021/11/07 19:32:50;;;;;;;24.65;4.95;;;;;;;;;;4405636;32;20469;-73
2021/11/07 19:35:18;;;;;;;19.80;4.15;;;;;;;;;;4402067;32;20014;-71
2021/11/07 19:37:44;;;;;;;25.52;5.87;;;;;;;;;;4398911;32;20425;-71
2021/11/07 19:40:09;;;;;;;25.73;5.62;;;;;;;;;;4409066;32;20056;-72
2021/11/07 19:42:35;;;;;;;;;;;;;;;;;;4406875;32;20336;-71
2021/11/07 19:45:04;;;;;;;17.10;5.10;;;;;;;;;;4408791;32;20263;-71
2021/11/07 19:47:40;;;;;;;26.58;5.72;;;;;;;;;;4420599;32;20113;-71
2021/11/07 19:50:08;;;;;;;21.40;5.30;;;;;;;;;;4421346;32;20431;-72
2021/11/07 19:52:34;;;;;;;21.42;5.45;;;;;;;;;;4420980;32;20051;-72
2021/11/07 19:55:02;;;;;;;;;;;;;;;;;;4406816;32;20018;-72
2021/11/07 19:57:38;;;;;;;28.87;5.97;;;;;;;;;;4420756;32;19941;-72
2021/11/07 20:05:10;;;;;;;;;;;;;;;;;;4420016;32;20061;-71
2021/11/07 20:08:03;;;;;;;20.58;5.05;;;;;;;;;;4420245;32;19949;-71
2021/11/07 20:10:30;;;;;;;26.65;4.47;;;;;;;;;;4406709;32;20101;-71
2021/11/07 20:12:55;;;;;;;20.70;5.05;;;;;;;;;;4404223;32;20371;-72
2021/11/07 20:15:20;;;;;;;;;;;;;;;;;;4395090;32;20101;-72
2021/11/07 20:17:46;;;;;;;30.15;11.65;;;;;;;;;;4417358;32;20027;-72
2021/11/07 20:20:11;;;;;;;;;;;;;;;;;;4415048;32;20489;-72
2021/11/07 20:22:38;;;;;;;25.77;5.90;;;;;;;;;;4419989;32;20001;-71
2021/11/07 20:25:05;;;;;;;29.33;5.10;;;;;;;;;;4411698;32;20152;-71
2021/11/07 20:27:36;;;;;;;27.37;6.90;;;;;;;;;;4397060;32;20046;-70
2021/11/07 20:30:02;;;;;;;24.10;5.18;;;;;;;;;;4420424;32;20057;-71
2021/11/07 20:32:29;;;;;;;;;;;;;;;;;;4408644;32;20022;-71
2021/11/07 20:34:59;;;;;;;38.78;6.12;;;;;;;;;;4391723;32;19929;-70
2021/11/07 20:37:32;;;;;;;48.87;14.63;;;;;;;;;;4418968;32;20068;-70
2021/11/07 20:40:11;;;;;;;28.45;7.62;;;;;;;;;;4420179;32;20045;-71
2021/11/07 20:42:40;;;;;;;38.05;8.57;;;;;;;;;;4420066;32;20014;-71
2021/11/07 20:46:08;;;;;;;20.52;5.90;;;;;;;;;;4419613;32;20446;-72
2021/11/07 20:51:34;;;;;;;32.72;7.12;;;;;;;;;;4372487;32;20027;-72
2021/11/07 20:59:36;;;;;;;23.70;7.78;;;;;;;;;;4418014;32;20117;-71
2021/11/07 21:02:11;;;;;;;33.55;7.35;;;;;;;;;;4423315;32;20347;-71
2021/11/07 21:07:17;;;;;;;38.25;8.10;;;;;;;;;;4422243;32;20060;-70
2021/11/07 21:12:17;;;;;;;;;;;;;;;;;;4422786;32;20093;-70
2021/11/07 21:15:02;;;;;;;27.98;7.47;;;;;;;;;;4410371;32;19976;-70
2021/11/07 21:23:13;;;;;;;21.37;6.35;;;;;;;;;;4421353;32;20049;-71
2021/11/07 21:28:23;;;;;;;24.55;6.80;;;;;;;;;;4423531;32;20075;-71
2021/11/07 21:30:48;;;;;;;;;;;;;;;;;;4423299;32;20030;-72
2021/11/07 21:33:30;;;;;;;29.20;7.90;;;;;;;;;;4409014;32;19933;-72
2021/11/07 21:38:40;;;;;;;29.60;6.32;;;;;;;;;;4422529;32;20022;-71
2021/11/07 21:43:56;;;;;;;36.25;9.27;;;;;;;;;;4407907;32;20103;-71
2021/11/07 21:46:23;;;;;;;31.25;9.50;;;;;;;;;;4408037;32;20309;-71
2021/11/07 21:48:49;;;;;;;21.75;7.22;;;;;;;;;;4407362;32;20022;-71
2021/11/07 21:51:16;;;;;;;;;;;;;;;;;;4407894;32;20018;-71
2021/11/07 21:53:41;;;;;;;25.92;6.30;;;;;;;;;;4407809;32;19955;-70
2021/11/07 21:56:07;;;;;;;;;;;;;;;;;;4407873;32;20027;-71
2021/11/07 21:58:32;;;;;;;29.75;8.48;;;;;;;;;;4407062;32;19969;-71
2021/11/07 22:00:57;;;;;;;;;;;;;;;;;;4407309;32;20322;-72
2021/11/07 22:03:22;;;;;;;30.12;6.25;;;;;;;;;;4413509;32;20275;-71
2021/11/07 22:05:49;;;;;;;;;;;;;;;;;;4422370;32;20031;-71
2021/11/07 22:08:18;;;;;;;30.25;8.80;;;;;;;;;;4408140;32;19944;-72
2021/11/07 22:10:55;;;;;;;37.08;7.18;;;;;;;;;;4422326;32;20046;-72
2021/11/07 22:13:20;;;;;;;28.60;6.55;;;;;;;;;;4422007;32;20044;-72
2021/11/07 22:18:39;;;;;;;28.12;6.75;;;;;;;;;;4405105;32;19947;-71
2021/11/07 22:21:10;;;;;;;27.33;5.57;;;;;;;;;;4421662;32;20101;-72
2021/11/07 22:23:42;;;;;;;21.48;6.78;;;;;;;;;;4422058;32;20011;-71
2021/11/07 22:26:15;;;;;;;28.60;6.40;;;;;;;;;;4422400;32;20017;-71
2021/11/07 22:28:50;;;;;;;24.37;6.07;;;;;;;;;;4422132;32;20472;-71
2021/11/07 22:31:21;;;;;;;32.00;7.00;;;;;;;;;;4422063;32;20034;-71
2021/11/07 22:33:47;;;;;;;26.25;6.45;;;;;;;;;;4407923;32;20080;-71
2021/11/07 22:36:18;;;;;;;;;;;;;;;;;;4418522;32;20449;-71
2021/11/07 22:38:43;;;;;;;35.92;5.78;;;;;;;;;;4406801;32;19949;-70
2021/11/07 22:41:21;;;;;;;;;;;;;;;;;;4406589;32;20447;-71
2021/11/07 22:43:47;;;;;;;24.83;6.65;;;;;;;;;;4392554;32;19989;-72
2021/11/07 22:46:16;;;;;;;25.83;6.53;;;;;;;;;;4405941;32;20485;-72
2021/11/07 22:48:43;;;;;;;26.65;6.43;;;;;;;;;;4406385;32;20023;-71
2021/11/07 22:51:23;;;;;;;30.15;9.55;;;;;;;;;;4406760;32;20045;-71
2021/11/07 22:53:58;;;;;;;22.35;5.53;;;;;;;;;;4405869;32;20117;-71
2021/11/07 23:04:25;;;;;;;24.17;5.18;;;;;;;;;;4406200;32;20071;-71
2021/11/07 23:06:54;;;;;;;19.98;4.35;;;;;;;;;;4399305;32;20022;-71
2021/11/07 23:11:46;;;;;;;;;;;;;;;;;;4421614;32;20037;-71
2021/11/07 23:14:13;;;;;;;23.83;5.78;;;;;;;;;;4421204;32;19989;-71
2021/11/07 23:16:44;;;;;;;27.77;5.22;;;;;;;;;;4421636;32;20464;-71
2021/11/07 23:19:11;;;;;;;22.95;5.18;;;;;;;;;;4408292;32;20046;-71
2021/11/07 23:21:37;;;;;;;23.87;5.75;;;;;;;;;;4420971;32;20041;-71
2021/11/07 23:24:02;;;;;;;;;;;;;;;;;;4420920;32;20096;-71
2021/11/07 23:26:29;;;;;;;29.33;6.10;;;;;;;;;;4420969;32;20323;-71
2021/11/07 23:29:03;;;;;;;35.05;6.37;;;;;;;;;;4420986;32;20056;-71
2021/11/07 23:31:28;;;;;;;21.55;4.80;;;;;;;;;;4412078;32;20413;-71
2021/11/07 23:33:53;;;;;;;;;;;;;;;;;;4405987;32;20435;-71
2021/11/07 23:36:20;;;;;;;33.10;6.15;;;;;;;;;;4420133;32;19974;-71
2021/11/07 23:38:46;;;;;;;26.62;6.15;;;;;;;;;;4420698;32;20408;-70
2021/11/07 23:41:11;;;;;;;;;;;;;;;;;;4415768;32;20023;-71
2021/11/07 23:43:37;;;;;;;25.10;5.65;;;;;;;;;;4405104;32;19933;-70
2021/11/07 23:46:04;;;;;;;;;;;;;;;;;;4406046;32;20054;-71
2021/11/07 23:48:31;;;;;;;19.45;3.95;;;;;;;;;;4405164;32;20435;-71
2021/11/07 23:55:54;;;;;;;;;;;;;;;;;;4406129;32;20015;-71
2021/11/07 23:58:22;;;;;;;31.10;5.15;;;;;;;;;;4405216;32;19933;-72
